Lake Tahoe Airport
KTVL : now visible

Aeroporto :











RITROVATECI SU...

 
LOGIN :

Iscrizione | Disclaimer

   EN    FR    IT 

 









Sommario :    VFR   VFR Marginale   IFR   IFR Intensivo   IFR Molto Intensivo
Visibilità : 
Base nubi : 
>= 8 km
>= 3000ft
5 / 8 km
1000 / 3000 ft
1500m / 5 km
500 / 1000 ft
800 / 1500m
200 / 500 ft
< 800m
< 200 ft
Simboli :   Temporali  Nebbia  Neve Forte  Precipitazioni Forti  Vento > 20 kt






- Altitudine del aeroporto : 6264 ft
- Codice IATA : TVL


KTVL - Lake Tahoe

ULTIMO METAR :
  • 272053Z AUTO 17009G18KT 10SM CLR 07/M02 A3034 RMK AO2 SLP266 T00671017 58002

METARs OBSOLETI :
  • 271953Z AUTO 00000KT 10SM FEW050 07/M03 A3036 RMK AO2 SLP276 T00671033
  • 271853Z AUTO 00000KT 10SM SCT100 SCT110 06/M03 A3035 RMK AO2 SLP275 T00611028

TAF KTVL
Valido dal 27 a 18 ore il 28 a 18 ore UTC


271720Z 2718/2818 VRB04KT P6SM BKN050 BKN100
FM271900 19007KT P6SM SCT045 BKN120
FM280200 VRB03KT P6SM BKN100



MetMap, La meteo Aeronautica in un colpo d'occhio ! - Copyright ORBIFLY Dicembre 2007 - Disclaimer

ORBIFLY MET'MAP TEAM :

Programmazione e sviluppo : Alexandra Zaïnal
Concezione : Baudouin d'Aumeries
Aiuto per la programmazione : Marc-Olivier Méhu
Supporto tecnico e logistico : Manuel Goepfert
Aiuto per la traduzione : Arnaldo La Scala

Contatto : metmap@orbifly.com




FONTI E CREDITI :

   NOAA       Earth
Advisory